sensor_id;sensor_type;location;lat;lon;timestamp;P1;durP1;ratioP1;P2;durP2;ratioP2
974;SDS011;6115;49.296;10.602;2023-04-24T00:00:37;1.60;;;1.20;;
974;SDS011;6115;49.296;10.602;2023-04-24T00:05:40;3.33;;;1.37;;
974;SDS011;6115;49.296;10.602;2023-04-24T00:10:41;1.63;;;1.33;;
974;SDS011;6115;49.296;10.602;2023-04-24T00:15:42;2.20;;;1.87;;
974;SDS011;6115;49.296;10.602;2023-04-24T00:20:43;1.50;;;1.20;;
974;SDS011;6115;49.296;10.602;2023-04-24T00:25:43;4.53;;;1.70;;
974;SDS011;6115;49.296;10.602;2023-04-24T00:30:44;2.63;;;1.20;;
974;SDS011;6115;49.296;10.602;2023-04-24T00:35:45;1.57;;;1.20;;
974;SDS011;6115;49.296;10.602;2023-04-24T00:40:45;2.47;;;1.20;;
974;SDS011;6115;49.296;10.602;2023-04-24T00:45:47;1.30;;;1.20;;
974;SDS011;6115;49.296;10.602;2023-04-24T00:50:48;1.40;;;1.20;;
974;SDS011;6115;49.296;10.602;2023-04-24T00:55:48;3.13;;;1.40;;
974;SDS011;6115;49.296;10.602;2023-04-24T01:00:49;1.73;;;1.47;;
974;SDS011;6115;49.296;10.602;2023-04-24T01:05:53;1.40;;;0.97;;
974;SDS011;6115;49.296;10.602;2023-04-24T01:10:54;1.47;;;0.90;;
974;SDS011;6115;49.296;10.602;2023-04-24T01:15:57;1.50;;;1.03;;
974;SDS011;6115;49.296;10.602;2023-04-24T01:20:58;1.70;;;1.20;;
974;SDS011;6115;49.296;10.602;2023-04-24T01:25:59;2.33;;;1.47;;
974;SDS011;6115;49.296;10.602;2023-04-24T01:31:00;2.33;;;1.27;;
974;SDS011;6115;49.296;10.602;2023-04-24T01:36:00;1.80;;;1.40;;
974;SDS011;6115;49.296;10.602;2023-04-24T01:41:01;1.73;;;1.10;;
974;SDS011;6115;49.296;10.602;2023-04-24T01:46:02;1.60;;;1.30;;
974;SDS011;6115;49.296;10.602;2023-04-24T01:51:03;1.30;;;1.10;;
974;SDS011;6115;49.296;10.602;2023-04-24T01:56:03;2.40;;;1.20;;
974;SDS011;6115;49.296;10.602;2023-04-24T02:01:06;1.30;;;1.20;;
974;SDS011;6115;49.296;10.602;2023-04-24T02:06:06;2.50;;;1.10;;
974;SDS011;6115;49.296;10.602;2023-04-24T02:11:08;2.83;;;1.20;;
974;SDS011;6115;49.296;10.602;2023-04-24T02:16:09;1.60;;;1.40;;
974;SDS011;6115;49.296;10.602;2023-04-24T02:21:10;1.90;;;1.30;;
974;SDS011;6115;49.296;10.602;2023-04-24T02:26:10;2.80;;;1.57;;
974;SDS011;6115;49.296;10.602;2023-04-24T02:31:11;2.27;;;1.30;;
974;SDS011;6115;49.296;10.602;2023-04-24T02:36:11;2.30;;;1.37;;
974;SDS011;6115;49.296;10.602;2023-04-24T02:41:13;1.80;;;1.20;;
974;SDS011;6115;49.296;10.602;2023-04-24T02:46:13;2.37;;;1.30;;
974;SDS011;6115;49.296;10.602;2023-04-24T02:51:14;2.07;;;1.10;;
974;SDS011;6115;49.296;10.602;2023-04-24T02:56:15;1.77;;;1.20;;
974;SDS011;6115;49.296;10.602;2023-04-24T03:01:15;2.27;;;1.37;;
974;SDS011;6115;49.296;10.602;2023-04-24T03:06:16;2.10;;;1.50;;
974;SDS011;6115;49.296;10.602;2023-04-24T03:11:16;2.80;;;1.20;;
974;SDS011;6115;49.296;10.602;2023-04-24T03:16:17;1.30;;;1.13;;
974;SDS011;6115;49.296;10.602;2023-04-24T03:21:17;2.57;;;1.40;;
974;SDS011;6115;49.296;10.602;2023-04-24T03:26:18;2.57;;;1.33;;
974;SDS011;6115;49.296;10.602;2023-04-24T03:31:19;1.23;;;1.00;;
974;SDS011;6115;49.296;10.602;2023-04-24T03:36:21;3.70;;;1.30;;
974;SDS011;6115;49.296;10.602;2023-04-24T03:41:21;2.47;;;1.93;;
974;SDS011;6115;49.296;10.602;2023-04-24T03:46:22;2.93;;;1.50;;
974;SDS011;6115;49.296;10.602;2023-04-24T03:51:23;1.67;;;1.30;;
974;SDS011;6115;49.296;10.602;2023-04-24T03:56:23;2.23;;;1.17;;
974;SDS011;6115;49.296;10.602;2023-04-24T04:01:24;2.90;;;1.40;;
974;SDS011;6115;49.296;10.602;2023-04-24T04:06:25;1.33;;;1.13;;
974;SDS011;6115;49.296;10.602;2023-04-24T04:11:26;1.97;;;1.30;;
974;SDS011;6115;49.296;10.602;2023-04-24T04:16:26;3.23;;;1.47;;
974;SDS011;6115;49.296;10.602;2023-04-24T04:21:27;3.97;;;1.60;;
974;SDS011;6115;49.296;10.602;2023-04-24T04:26:28;2.73;;;1.33;;
974;SDS011;6115;49.296;10.602;2023-04-24T04:31:33;4.43;;;1.53;;
974;SDS011;6115;49.296;10.602;2023-04-24T04:36:34;4.80;;;2.53;;
974;SDS011;6115;49.296;10.602;2023-04-24T04:41:36;3.00;;;1.33;;
974;SDS011;6115;49.296;10.602;2023-04-24T04:46:37;3.00;;;1.90;;
974;SDS011;6115;49.296;10.602;2023-04-24T04:51:38;2.20;;;1.40;;
974;SDS011;6115;49.296;10.602;2023-04-24T04:56:38;1.93;;;1.23;;
974;SDS011;6115;49.296;10.602;2023-04-24T05:01:39;2.10;;;1.40;;
974;SDS011;6115;49.296;10.602;2023-04-24T05:06:40;2.40;;;1.50;;
974;SDS011;6115;49.296;10.602;2023-04-24T05:11:40;3.13;;;1.53;;
974;SDS011;6115;49.296;10.602;2023-04-24T05:16:41;2.97;;;1.30;;
974;SDS011;6115;49.296;10.602;2023-04-24T05:21:48;2.43;;;1.77;;
974;SDS011;6115;49.296;10.602;2023-04-24T05:26:48;4.57;;;1.40;;
974;SDS011;6115;49.296;10.602;2023-04-24T05:31:50;2.33;;;1.40;;
974;SDS011;6115;49.296;10.602;2023-04-24T05:36:50;2.20;;;1.43;;
974;SDS011;6115;49.296;10.602;2023-04-24T05:41:51;2.73;;;1.30;;
974;SDS011;6115;49.296;10.602;2023-04-24T05:46:53;2.53;;;1.10;;
974;SDS011;6115;49.296;10.602;2023-04-24T05:51:55;2.30;;;1.47;;
974;SDS011;6115;49.296;10.602;2023-04-24T05:56:58;3.00;;;1.47;;
974;SDS011;6115;49.296;10.602;2023-04-24T06:01:59;1.20;;;0.97;;
974;SDS011;6115;49.296;10.602;2023-04-24T06:06:59;1.00;;;0.80;;
974;SDS011;6115;49.296;10.602;2023-04-24T06:12:00;3.40;;;1.00;;
974;SDS011;6115;49.296;10.602;2023-04-24T06:17:01;1.27;;;1.00;;
974;SDS011;6115;49.296;10.602;2023-04-24T06:22:01;1.40;;;0.93;;
974;SDS011;6115;49.296;10.602;2023-04-24T06:27:02;1.40;;;0.87;;
974;SDS011;6115;49.296;10.602;2023-04-24T06:32:03;1.33;;;1.00;;
974;SDS011;6115;49.296;10.602;2023-04-24T06:37:03;3.43;;;1.10;;
974;SDS011;6115;49.296;10.602;2023-04-24T06:42:04;3.13;;;1.40;;
974;SDS011;6115;49.296;10.602;2023-04-24T06:47:04;2.73;;;1.37;;
974;SDS011;6115;49.296;10.602;2023-04-24T06:52:05;2.23;;;1.50;;
974;SDS011;6115;49.296;10.602;2023-04-24T06:57:09;2.20;;;1.70;;
974;SDS011;6115;49.296;10.602;2023-04-24T07:02:10;2.17;;;1.97;;
974;SDS011;6115;49.296;10.602;2023-04-24T07:07:11;1.67;;;1.23;;
974;SDS011;6115;49.296;10.602;2023-04-24T07:12:14;2.27;;;2.07;;
974;SDS011;6115;49.296;10.602;2023-04-24T07:17:14;2.40;;;1.83;;
974;SDS011;6115;49.296;10.602;2023-04-24T07:22:15;3.63;;;2.60;;
974;SDS011;6115;49.296;10.602;2023-04-24T07:27:16;4.07;;;2.50;;
974;SDS011;6115;49.296;10.602;2023-04-24T07:32:17;4.30;;;3.00;;
974;SDS011;6115;49.296;10.602;2023-04-24T07:37:18;3.67;;;3.30;;
974;SDS011;6115;49.296;10.602;2023-04-24T07:42:18;5.17;;;4.10;;
974;SDS011;6115;49.296;10.602;2023-04-24T07:47:19;7.17;;;3.30;;
974;SDS011;6115;49.296;10.602;2023-04-24T07:52:20;3.67;;;3.30;;
974;SDS011;6115;49.296;10.602;2023-04-24T07:57:20;4.57;;;2.80;;
974;SDS011;6115;49.296;10.602;2023-04-24T08:02:21;3.47;;;2.87;;
974;SDS011;6115;49.296;10.602;2023-04-24T08:07:26;5.17;;;2.80;;
974;SDS011;6115;49.296;10.602;2023-04-24T08:12:27;2.50;;;2.30;;
974;SDS011;6115;49.296;10.602;2023-04-24T08:17:29;3.30;;;3.00;;
974;SDS011;6115;49.296;10.602;2023-04-24T08:22:29;3.27;;;2.70;;
974;SDS011;6115;49.296;10.602;2023-04-24T08:27:30;4.33;;;2.90;;
974;SDS011;6115;49.296;10.602;2023-04-24T08:32:30;7.83;;;4.60;;
974;SDS011;6115;49.296;10.602;2023-04-24T08:37:31;10.60;;;5.00;;
974;SDS011;6115;49.296;10.602;2023-04-24T08:42:33;6.80;;;5.30;;
974;SDS011;6115;49.296;10.602;2023-04-24T08:47:35;3.87;;;3.13;;
974;SDS011;6115;49.296;10.602;2023-04-24T08:52:38;4.67;;;2.30;;
974;SDS011;6115;49.296;10.602;2023-04-24T08:57:39;3.93;;;2.57;;
974;SDS011;6115;49.296;10.602;2023-04-24T09:02:43;3.50;;;1.97;;
974;SDS011;6115;49.296;10.602;2023-04-24T09:07:45;3.80;;;2.60;;
974;SDS011;6115;49.296;10.602;2023-04-24T09:12:53;3.27;;;2.00;;
974;SDS011;6115;49.296;10.602;2023-04-24T09:17:55;2.33;;;2.00;;
974;SDS011;6115;49.296;10.602;2023-04-24T09:22:59;2.07;;;1.87;;
974;SDS011;6115;49.296;10.602;2023-04-24T09:28:00;2.30;;;1.70;;
974;SDS011;6115;49.296;10.602;2023-04-24T09:33:15;4.60;;;1.40;;
974;SDS011;6115;49.296;10.602;2023-04-24T09:38:16;5.50;;;1.57;;
974;SDS011;6115;49.296;10.602;2023-04-24T09:43:16;2.90;;;1.53;;
974;SDS011;6115;49.296;10.602;2023-04-24T09:48:17;3.70;;;1.70;;
974;SDS011;6115;49.296;10.602;2023-04-24T09:53:17;1.90;;;1.40;;
974;SDS011;6115;49.296;10.602;2023-04-24T09:58:25;1.77;;;1.40;;
974;SDS011;6115;49.296;10.602;2023-04-24T10:03:32;1.30;;;1.03;;
974;SDS011;6115;49.296;10.602;2023-04-24T10:08:34;3.20;;;1.20;;
974;SDS011;6115;49.296;10.602;2023-04-24T10:13:35;2.53;;;1.37;;
974;SDS011;6115;49.296;10.602;2023-04-24T10:18:36;1.23;;;0.93;;
974;SDS011;6115;49.296;10.602;2023-04-24T10:23:37;1.50;;;1.30;;
974;SDS011;6115;49.296;10.602;2023-04-24T10:28:38;2.13;;;1.40;;
974;SDS011;6115;49.296;10.602;2023-04-24T10:33:43;1.77;;;1.67;;
974;SDS011;6115;49.296;10.602;2023-04-24T10:38:45;1.67;;;1.40;;
974;SDS011;6115;49.296;10.602;2023-04-24T10:43:47;1.50;;;1.20;;
974;SDS011;6115;49.296;10.602;2023-04-24T10:48:54;1.47;;;1.23;;
974;SDS011;6115;49.296;10.602;2023-04-24T10:53:55;1.97;;;1.30;;
974;SDS011;6115;49.296;10.602;2023-04-24T10:58:57;1.83;;;1.40;;
974;SDS011;6115;49.296;10.602;2023-04-24T11:04:02;1.70;;;1.00;;
974;SDS011;6115;49.296;10.602;2023-04-24T11:09:10;12.07;;;2.00;;
974;SDS011;6115;49.296;10.602;2023-04-24T11:14:15;2.90;;;2.00;;
974;SDS011;6115;49.296;10.602;2023-04-24T11:19:21;5.80;;;2.33;;
974;SDS011;6115;49.296;10.602;2023-04-24T11:34:48;2.70;;;2.17;;
974;SDS011;6115;49.296;10.602;2023-04-24T11:39:50;1.73;;;1.30;;
974;SDS011;6115;49.296;10.602;2023-04-24T11:44:52;2.30;;;1.40;;
974;SDS011;6115;49.296;10.602;2023-04-24T11:49:54;5.40;;;2.17;;
974;SDS011;6115;49.296;10.602;2023-04-24T11:54:54;1.70;;;1.40;;
974;SDS011;6115;49.296;10.602;2023-04-24T11:59:55;1.43;;;1.30;;
974;SDS011;6115;49.296;10.602;2023-04-24T12:04:56;1.70;;;1.60;;
974;SDS011;6115;49.296;10.602;2023-04-24T12:09:57;3.77;;;2.13;;
974;SDS011;6115;49.296;10.602;2023-04-24T12:15:06;4.03;;;2.00;;
974;SDS011;6115;49.296;10.602;2023-04-24T12:20:07;1.93;;;1.73;;
974;SDS011;6115;49.296;10.602;2023-04-24T12:25:09;2.13;;;1.90;;
974;SDS011;6115;49.296;10.602;2023-04-24T12:30:14;2.60;;;2.40;;
974;SDS011;6115;49.296;10.602;2023-04-24T12:35:19;3.13;;;1.73;;
974;SDS011;6115;49.296;10.602;2023-04-24T12:40:21;4.70;;;2.10;;
974;SDS011;6115;49.296;10.602;2023-04-24T12:45:25;2.47;;;2.27;;
974;SDS011;6115;49.296;10.602;2023-04-24T12:50:27;2.53;;;1.60;;
974;SDS011;6115;49.296;10.602;2023-04-24T12:55:28;4.97;;;4.50;;
974;SDS011;6115;49.296;10.602;2023-04-24T13:00:28;2.60;;;2.40;;
974;SDS011;6115;49.296;10.602;2023-04-24T13:05:29;3.90;;;2.13;;
974;SDS011;6115;49.296;10.602;2023-04-24T13:10:30;3.70;;;2.80;;
974;SDS011;6115;49.296;10.602;2023-04-24T13:15:30;4.40;;;2.43;;
974;SDS011;6115;49.296;10.602;2023-04-24T13:20:31;4.03;;;2.70;;
974;SDS011;6115;49.296;10.602;2023-04-24T13:25:34;2.60;;;2.33;;
974;SDS011;6115;49.296;10.602;2023-04-24T13:30:35;5.53;;;4.43;;
974;SDS011;6115;49.296;10.602;2023-04-24T13:35:36;6.07;;;3.70;;
974;SDS011;6115;49.296;10.602;2023-04-24T13:40:37;3.13;;;2.83;;
974;SDS011;6115;49.296;10.602;2023-04-24T13:45:37;3.27;;;2.70;;
974;SDS011;6115;49.296;10.602;2023-04-24T13:50:38;2.87;;;2.57;;
974;SDS011;6115;49.296;10.602;2023-04-24T13:55:38;2.60;;;2.40;;
974;SDS011;6115;49.296;10.602;2023-04-24T14:00:39;3.30;;;3.00;;
974;SDS011;6115;49.296;10.602;2023-04-24T14:05:40;2.73;;;2.53;;
974;SDS011;6115;49.296;10.602;2023-04-24T14:10:40;6.03;;;3.93;;
974;SDS011;6115;49.296;10.602;2023-04-24T14:15:43;5.90;;;2.60;;
974;SDS011;6115;49.296;10.602;2023-04-24T14:20:44;5.23;;;3.67;;
974;SDS011;6115;49.296;10.602;2023-04-24T14:25:45;4.67;;;3.90;;
974;SDS011;6115;49.296;10.602;2023-04-24T14:30:47;5.40;;;4.90;;
974;SDS011;6115;49.296;10.602;2023-04-24T14:35:47;4.13;;;3.57;;
974;SDS011;6115;49.296;10.602;2023-04-24T14:40:49;4.97;;;4.47;;
974;SDS011;6115;49.296;10.602;2023-04-24T14:45:49;5.67;;;4.60;;
974;SDS011;6115;49.296;10.602;2023-04-24T14:50:50;5.50;;;3.67;;
974;SDS011;6115;49.296;10.602;2023-04-24T14:55:50;4.10;;;3.40;;
974;SDS011;6115;49.296;10.602;2023-04-24T15:00:51;3.57;;;3.27;;
974;SDS011;6115;49.296;10.602;2023-04-24T15:05:54;4.53;;;3.80;;
974;SDS011;6115;49.296;10.602;2023-04-24T15:10:55;3.73;;;3.33;;
974;SDS011;6115;49.296;10.602;2023-04-24T15:15:55;4.03;;;3.37;;
974;SDS011;6115;49.296;10.602;2023-04-24T15:20:56;7.63;;;4.00;;
974;SDS011;6115;49.296;10.602;2023-04-24T15:25:56;4.13;;;2.70;;
974;SDS011;6115;49.296;10.602;2023-04-24T15:30:57;5.73;;;2.80;;
974;SDS011;6115;49.296;10.602;2023-04-24T15:35:58;3.30;;;2.93;;
974;SDS011;6115;49.296;10.602;2023-04-24T15:40:58;3.27;;;2.97;;
974;SDS011;6115;49.296;10.602;2023-04-24T15:45:59;4.27;;;3.07;;
974;SDS011;6115;49.296;10.602;2023-04-24T15:51:00;4.10;;;3.40;;
974;SDS011;6115;49.296;10.602;2023-04-24T15:56:01;4.17;;;2.93;;
974;SDS011;6115;49.296;10.602;2023-04-24T16:01:02;4.23;;;3.83;;
974;SDS011;6115;49.296;10.602;2023-04-24T16:06:02;5.90;;;4.53;;
974;SDS011;6115;49.296;10.602;2023-04-24T16:11:03;4.47;;;3.93;;
974;SDS011;6115;49.296;10.602;2023-04-24T16:16:04;4.77;;;3.90;;
974;SDS011;6115;49.296;10.602;2023-04-24T16:21:05;5.27;;;4.23;;
974;SDS011;6115;49.296;10.602;2023-04-24T16:26:08;9.47;;;4.30;;
974;SDS011;6115;49.296;10.602;2023-04-24T16:31:08;4.57;;;3.67;;
974;SDS011;6115;49.296;10.602;2023-04-24T16:36:09;5.07;;;4.57;;
974;SDS011;6115;49.296;10.602;2023-04-24T16:41:14;5.63;;;4.30;;
974;SDS011;6115;49.296;10.602;2023-04-24T16:46:14;4.97;;;4.13;;
974;SDS011;6115;49.296;10.602;2023-04-24T16:51:15;5.73;;;4.43;;
974;SDS011;6115;49.296;10.602;2023-04-24T16:56:15;6.40;;;4.10;;
974;SDS011;6115;49.296;10.602;2023-04-24T17:01:16;4.40;;;3.97;;
974;SDS011;6115;49.296;10.602;2023-04-24T17:06:16;4.47;;;3.87;;
974;SDS011;6115;49.296;10.602;2023-04-24T17:11:17;3.97;;;3.57;;
974;SDS011;6115;49.296;10.602;2023-04-24T17:16:17;4.67;;;4.03;;
974;SDS011;6115;49.296;10.602;2023-04-24T17:21:18;5.20;;;4.57;;
974;SDS011;6115;49.296;10.602;2023-04-24T17:26:19;5.00;;;4.20;;
974;SDS011;6115;49.296;10.602;2023-04-24T17:31:20;5.23;;;4.73;;
974;SDS011;6115;49.296;10.602;2023-04-24T17:36:20;6.67;;;4.90;;
974;SDS011;6115;49.296;10.602;2023-04-24T17:41:21;11.83;;;5.87;;
974;SDS011;6115;49.296;10.602;2023-04-24T17:46:22;7.97;;;4.60;;
974;SDS011;6115;49.296;10.602;2023-04-24T17:51:23;5.63;;;5.00;;
974;SDS011;6115;49.296;10.602;2023-04-24T17:56:23;5.43;;;4.77;;
974;SDS011;6115;49.296;10.602;2023-04-24T18:01:24;4.00;;;3.60;;
974;SDS011;6115;49.296;10.602;2023-04-24T18:06:27;3.60;;;3.07;;
974;SDS011;6115;49.296;10.602;2023-04-24T18:11:28;2.63;;;2.13;;
974;SDS011;6115;49.296;10.602;2023-04-24T18:16:29;4.30;;;3.70;;
974;SDS011;6115;49.296;10.602;2023-04-24T18:21:30;11.90;;;8.03;;
974;SDS011;6115;49.296;10.602;2023-04-24T18:26:31;7.80;;;6.23;;
974;SDS011;6115;49.296;10.602;2023-04-24T18:31:31;9.93;;;5.60;;
974;SDS011;6115;49.296;10.602;2023-04-24T18:36:32;7.80;;;5.90;;
974;SDS011;6115;49.296;10.602;2023-04-24T18:41:32;7.00;;;5.77;;
974;SDS011;6115;49.296;10.602;2023-04-24T18:46:34;9.87;;;6.60;;
974;SDS011;6115;49.296;10.602;2023-04-24T18:51:37;7.07;;;5.17;;
974;SDS011;6115;49.296;10.602;2023-04-24T18:56:38;7.47;;;5.50;;
974;SDS011;6115;49.296;10.602;2023-04-24T19:01:38;6.80;;;5.33;;
974;SDS011;6115;49.296;10.602;2023-04-24T19:06:39;5.30;;;4.80;;
974;SDS011;6115;49.296;10.602;2023-04-24T19:11:39;7.10;;;5.10;;
974;SDS011;6115;49.296;10.602;2023-04-24T19:16:41;4.87;;;4.37;;
974;SDS011;6115;49.296;10.602;2023-04-24T19:21:41;5.33;;;4.83;;
974;SDS011;6115;49.296;10.602;2023-04-24T19:26:43;5.90;;;4.70;;
974;SDS011;6115;49.296;10.602;2023-04-24T19:31:44;5.00;;;4.20;;
974;SDS011;6115;49.296;10.602;2023-04-24T19:36:45;4.70;;;4.20;;
974;SDS011;6115;49.296;10.602;2023-04-24T19:41:45;5.47;;;3.50;;
974;SDS011;6115;49.296;10.602;2023-04-24T19:46:46;4.83;;;4.10;;
974;SDS011;6115;49.296;10.602;2023-04-24T19:51:47;7.67;;;4.30;;
974;SDS011;6115;49.296;10.602;2023-04-24T19:56:48;6.43;;;4.10;;
974;SDS011;6115;49.296;10.602;2023-04-24T20:01:48;5.17;;;4.00;;
974;SDS011;6115;49.296;10.602;2023-04-24T20:06:50;5.30;;;4.50;;
974;SDS011;6115;49.296;10.602;2023-04-24T20:11:50;4.90;;;3.77;;
974;SDS011;6115;49.296;10.602;2023-04-24T20:16:52;4.57;;;3.73;;
974;SDS011;6115;49.296;10.602;2023-04-24T20:21:53;8.33;;;3.73;;
974;SDS011;6115;49.296;10.602;2023-04-24T20:26:54;5.17;;;3.60;;
974;SDS011;6115;49.296;10.602;2023-04-24T20:31:56;4.30;;;3.90;;
974;SDS011;6115;49.296;10.602;2023-04-24T20:36:56;4.57;;;3.53;;
974;SDS011;6115;49.296;10.602;2023-04-24T20:41:57;4.60;;;4.00;;
974;SDS011;6115;49.296;10.602;2023-04-24T20:46:58;4.60;;;3.60;;
974;SDS011;6115;49.296;10.602;2023-04-24T20:51:59;6.87;;;4.27;;
974;SDS011;6115;49.296;10.602;2023-04-24T20:56:59;5.47;;;4.00;;
974;SDS011;6115;49.296;10.602;2023-04-24T21:02:00;5.73;;;4.50;;
974;SDS011;6115;49.296;10.602;2023-04-24T21:07:02;4.77;;;4.27;;
974;SDS011;6115;49.296;10.602;2023-04-24T21:12:03;4.70;;;4.17;;
974;SDS011;6115;49.296;10.602;2023-04-24T21:17:03;7.07;;;4.80;;
974;SDS011;6115;49.296;10.602;2023-04-24T21:22:04;4.53;;;4.10;;
974;SDS011;6115;49.296;10.602;2023-04-24T21:27:04;8.60;;;5.37;;
974;SDS011;6115;49.296;10.602;2023-04-24T21:32:06;5.40;;;4.23;;
974;SDS011;6115;49.296;10.602;2023-04-24T21:37:06;6.70;;;4.13;;
974;SDS011;6115;49.296;10.602;2023-04-24T21:42:07;4.40;;;4.00;;
974;SDS011;6115;49.296;10.602;2023-04-24T21:47:08;6.47;;;4.13;;
974;SDS011;6115;49.296;10.602;2023-04-24T21:52:09;4.93;;;4.30;;
974;SDS011;6115;49.296;10.602;2023-04-24T21:57:09;6.03;;;4.87;;
974;SDS011;6115;49.296;10.602;2023-04-24T22:02:11;8.00;;;4.90;;
974;SDS011;6115;49.296;10.602;2023-04-24T22:07:12;5.53;;;4.77;;
974;SDS011;6115;49.296;10.602;2023-04-24T22:12:12;5.93;;;4.87;;
974;SDS011;6115;49.296;10.602;2023-04-24T22:17:13;5.63;;;4.90;;
974;SDS011;6115;49.296;10.602;2023-04-24T22:22:14;7.70;;;4.83;;
974;SDS011;6115;49.296;10.602;2023-04-24T22:27:14;5.97;;;5.13;;
974;SDS011;6115;49.296;10.602;2023-04-24T22:32:15;5.77;;;5.07;;
974;SDS011;6115;49.296;10.602;2023-04-24T22:37:15;5.83;;;4.27;;
974;SDS011;6115;49.296;10.602;2023-04-24T22:42:16;4.77;;;3.83;;
974;SDS011;6115;49.296;10.602;2023-04-24T22:47:16;8.03;;;4.60;;
974;SDS011;6115;49.296;10.602;2023-04-24T22:52:19;5.57;;;4.10;;
974;SDS011;6115;49.296;10.602;2023-04-24T22:57:19;5.33;;;4.57;;
974;SDS011;6115;49.296;10.602;2023-04-24T23:02:21;4.77;;;4.27;;
974;SDS011;6115;49.296;10.602;2023-04-24T23:07:22;6.50;;;4.33;;
974;SDS011;6115;49.296;10.602;2023-04-24T23:12:22;5.10;;;4.60;;
974;SDS011;6115;49.296;10.602;2023-04-24T23:17:23;6.67;;;4.20;;
974;SDS011;6115;49.296;10.602;2023-04-24T23:22:25;5.23;;;4.10;;
974;SDS011;6115;49.296;10.602;2023-04-24T23:27:26;4.20;;;3.43;;
974;SDS011;6115;49.296;10.602;2023-04-24T23:32:27;5.80;;;4.43;;
974;SDS011;6115;49.296;10.602;2023-04-24T23:37:27;4.70;;;4.20;;
974;SDS011;6115;49.296;10.602;2023-04-24T23:42:28;5.27;;;3.60;;
974;SDS011;6115;49.296;10.602;2023-04-24T23:47:28;3.90;;;3.50;;
974;SDS011;6115;49.296;10.602;2023-04-24T23:52:29;4.77;;;4.03;;
974;SDS011;6115;49.296;10.602;2023-04-24T23:57:30;5.60;;;4.10;;
